createdAt,value
2019-01-21T08:50:38.598Z,2.40
2019-01-21T09:18:55.446Z,5.50
2019-01-21T09:21:30.206Z,9.30
2019-01-21T09:24:23.269Z,10.00
2019-01-21T09:27:23.425Z,9.70
2019-01-21T09:30:14.396Z,9.30
2019-01-21T09:32:46.257Z,8.50
2019-01-21T09:35:39.260Z,8.40
2019-01-21T09:38:29.007Z,7.70
2019-01-21T09:41:03.719Z,7.30
2019-01-21T09:43:35.581Z,7.20
2019-01-21T09:46:40.925Z,7.50
2019-01-21T09:49:08.689Z,7.80
2019-01-21T09:56:39.540Z,8.60
2019-01-21T09:59:09.087Z,10.10
2019-01-21T10:01:38.160Z,10.40
2019-01-21T10:04:07.971Z,10.50
2019-01-21T10:06:43.187Z,10.40
2019-01-21T10:12:01.370Z,10.00
2019-01-21T10:14:35.996Z,8.20
2019-01-21T10:17:16.519Z,7.20
2019-01-21T10:20:12.177Z,6.50
2019-01-21T10:23:11.279Z,6.10
2019-01-21T10:26:01.262Z,6.10
2019-01-21T10:28:39.164Z,6.30
2019-01-21T10:31:26.179Z,6.90
2019-01-21T10:34:33.060Z,7.50
2019-01-21T10:37:26.016Z,8.00
2019-01-21T10:40:28.489Z,7.60
2019-01-21T10:43:09.263Z,7.10
2019-01-21T11:08:56.028Z,6.50
2019-01-21T15:10:21.617Z,4.40
2019-01-21T15:28:14.656Z,1.10
2019-01-21T15:30:53.213Z,0.80
2019-01-21T15:33:31.084Z,0.80
2019-01-21T15:36:18.077Z,0.80
2019-01-21T15:39:01.673Z,0.80
2019-01-21T15:41:50.700Z,0.70
2019-01-21T15:44:50.103Z,0.70
2019-01-21T15:47:28.765Z,0.60
2019-01-21T15:50:09.418Z,0.50
2019-01-21T15:52:59.403Z,0.50
2019-01-21T15:55:46.319Z,0.40
